Time,TemperatureF,DewpointF,PressureIn,WindDirection,WindDirectionDegrees,WindSpeedMPH,WindSpeedGustMPH,Humidity,HourlyPrecipIn,Conditions,Clouds,dailyrainin,SoftwareType,DateUTC
2013-09-02 00:03:00,75.0,60.0,29.84,NNW,330,7.0,7.0,59,0.00,,,0.00,,2013-09-02 05:03:00,
2013-09-02 00:13:00,75.0,60.0,29.84,NNW,330,7.0,7.0,59,0.00,,,0.00,,2013-09-02 05:13:00,
2013-09-02 00:23:00,75.0,60.0,29.84,NNW,330,7.0,7.0,59,0.00,,,0.00,,2013-09-02 05:23:00,
2013-09-02 00:52:00,74.0,60.0,29.86,NNW,340,6.0,6.0,61,0.00,,,0.00,,2013-09-02 05:52:00,
2013-09-02 01:22:00,74.0,60.0,29.86,NNW,340,6.0,6.0,61,0.00,,,0.00,,2013-09-02 06:22:00,
2013-09-02 01:43:00,71.0,60.0,29.87,NNW,330,6.0,6.0,68,0.00,,,0.00,,2013-09-02 06:43:00,
2013-09-02 01:52:00,71.0,60.0,29.87,NNW,330,6.0,6.0,68,0.00,,,0.00,,2013-09-02 06:52:00,
2013-09-02 02:11:00,71.0,60.0,29.87,NNW,330,6.0,6.0,68,0.00,,,0.00,,2013-09-02 07:11:00,
2013-09-02 02:21:00,71.0,60.0,29.87,NNW,330,6.0,6.0,68,0.00,,,0.00,,2013-09-02 07:21:00,
2013-09-02 02:52:00,69.0,59.0,29.85,NNW,330,7.0,7.0,70,0.00,,,0.00,,2013-09-02 07:52:00,
2013-09-02 03:22:00,69.0,59.0,29.85,NNW,330,7.0,7.0,70,0.00,,,0.00,,2013-09-02 08:22:00,
2013-09-02 03:52:00,66.0,59.0,29.86,NNW,330,6.0,6.0,78,0.00,,,0.00,,2013-09-02 08:52:00,
2013-09-02 04:22:00,66.0,59.0,29.86,NNW,330,6.0,6.0,78,0.00,,,0.00,,2013-09-02 09:22:00,
2013-09-02 04:53:00,65.0,59.0,29.87,NW,320,5.0,5.0,81,0.00,,,0.00,,2013-09-02 09:53:00,
2013-09-02 05:22:00,65.0,59.0,29.87,NW,320,5.0,5.0,81,0.00,,,0.00,,2013-09-02 10:22:00,
2013-09-02 05:53:00,64.0,59.0,29.89,NW,320,5.0,5.0,83,0.00,,,0.00,,2013-09-02 10:53:00,
2013-09-02 06:22:00,64.0,59.0,29.89,NW,320,5.0,5.0,83,0.00,,,0.00,,2013-09-02 11:22:00,
2013-09-02 06:52:00,64.0,59.0,29.91,NW,320,5.0,5.0,83,0.00,,,0.00,,2013-09-02 11:52:00,
2013-09-02 07:21:00,64.0,59.0,29.91,NW,320,5.0,5.0,83,0.00,,,0.00,,2013-09-02 12:21:00,
2013-09-02 07:52:00,64.0,59.0,29.92,North,350,7.0,7.0,83,0.00,,,0.00,,2013-09-02 12:52:00,
2013-09-02 08:11:00,64.0,59.0,29.92,North,350,7.0,7.0,83,0.00,,,0.00,,2013-09-02 13:11:00,
2013-09-02 08:22:00,64.0,59.0,29.92,North,350,7.0,7.0,83,0.00,,,0.00,,2013-09-02 13:22:00,
2013-09-02 08:52:00,66.0,60.0,29.94,North,0,5.0,5.0,81,0.00,,,0.00,,2013-09-02 13:52:00,
2013-09-02 09:22:00,66.0,60.0,29.94,North,0,5.0,5.0,81,0.00,,,0.00,,2013-09-02 14:22:00,
2013-09-02 09:52:00,71.0,61.0,29.94,North,0,5.0,5.0,70,0.00,,,0.00,,2013-09-02 14:52:00,
2013-09-02 10:23:00,71.0,61.0,29.94,North,0,5.0,5.0,70,0.00,,,0.00,,2013-09-02 15:23:00,
2013-09-02 10:55:00,73.0,61.0,29.96,North,0,5.0,5.0,65,0.00,,,0.00,,2013-09-02 15:55:00,
2013-09-02 11:24:00,73.0,61.0,29.96,North,0,5.0,5.0,65,0.00,,,0.00,,2013-09-02 16:24:00,
2013-09-02 11:53:00,76.0,61.0,29.97,NE,50,5.0,5.0,59,0.00,,,0.00,,2013-09-02 16:53:00,
2013-09-02 12:23:00,76.0,61.0,29.97,NE,50,5.0,5.0,59,0.00,,,0.00,,2013-09-02 17:23:00,
2013-09-02 12:52:00,79.0,60.0,29.96,NE,50,5.0,5.0,52,0.00,,,0.00,,2013-09-02 17:52:00,
2013-09-02 13:13:00,79.0,60.0,29.96,NE,50,5.0,5.0,52,0.00,,,0.00,,2013-09-02 18:13:00,
2013-09-02 13:22:00,79.0,60.0,29.96,NE,50,5.0,5.0,52,0.00,,,0.00,,2013-09-02 18:22:00,
2013-09-02 13:52:00,79.0,61.0,29.96,NNW,330,8.0,8.0,54,0.00,,,0.00,,2013-09-02 18:52:00,
2013-09-02 14:22:00,79.0,61.0,29.96,NNW,330,8.0,8.0,54,0.00,,,0.00,,2013-09-02 19:22:00,
2013-09-02 14:52:00,81.0,59.0,29.95,NNW,330,8.0,8.0,47,0.00,,,0.00,,2013-09-02 19:52:00,
2013-09-02 15:22:00,81.0,59.0,29.95,NNW,330,8.0,8.0,47,0.00,,,0.00,,2013-09-02 20:22:00,
2013-09-02 15:52:00,78.0,57.0,29.95,NNW,340,7.0,7.0,49,0.00,,,0.00,,2013-09-02 20:52:00,
2013-09-02 16:23:00,78.0,57.0,29.95,NNW,340,7.0,7.0,49,0.00,,,0.00,,2013-09-02 21:23:00,
2013-09-02 16:55:00,81.0,54.0,29.94,NNW,330,10.0,10.0,40,0.00,,,0.00,,2013-09-02 21:55:00,
2013-09-02 17:24:00,81.0,54.0,29.94,NNW,330,10.0,10.0,40,0.00,,,0.00,,2013-09-02 22:24:00,
2013-09-02 17:54:00,80.0,55.0,29.94,NNW,330,10.0,10.0,43,0.00,,,0.00,,2013-09-02 22:54:00,
2013-09-02 18:22:00,80.0,55.0,29.94,NNW,330,10.0,10.0,43,0.00,,,0.00,,2013-09-02 23:22:00,
2013-09-02 18:53:00,78.0,55.0,29.94,NW,320,5.0,5.0,45,0.00,,,0.00,,2013-09-02 23:53:00,
2013-09-02 19:21:00,78.0,55.0,29.94,NW,320,5.0,5.0,45,0.00,,,0.00,,2013-09-03 00:21:00,
2013-09-02 19:42:00,76.0,55.0,29.94,NNW,340,6.0,6.0,48,0.00,,,0.00,,2013-09-03 00:42:00,
2013-09-02 19:52:00,76.0,55.0,29.94,NNW,340,6.0,6.0,48,0.00,,,0.00,,2013-09-03 00:52:00,
2013-09-02 20:11:00,76.0,55.0,29.94,NNW,340,6.0,6.0,48,0.00,,,0.00,,2013-09-03 01:11:00,
2013-09-02 20:21:00,76.0,55.0,29.94,NNW,340,6.0,6.0,48,0.00,,,0.00,,2013-09-03 01:21:00,
2013-09-02 20:52:00,71.0,55.0,29.95,North,350,3.0,3.0,58,0.00,,,0.00,,2013-09-03 01:52:00,
2013-09-02 21:12:00,71.0,55.0,29.95,North,350,3.0,3.0,58,0.00,,,0.00,,2013-09-03 02:12:00,
2013-09-02 21:21:00,71.0,55.0,29.95,North,350,3.0,3.0,58,0.00,,,0.00,,2013-09-03 02:21:00,
2013-09-02 21:42:00,69.0,55.0,29.97,North,350,5.0,5.0,60,0.00,,,0.00,,2013-09-03 02:42:00,
2013-09-02 21:52:00,69.0,55.0,29.97,North,350,5.0,5.0,60,0.00,,,0.00,,2013-09-03 02:52:00,
2013-09-02 22:23:00,69.0,55.0,29.97,North,350,5.0,5.0,60,0.00,,,0.00,,2013-09-03 03:23:00,
2013-09-02 22:55:00,67.0,55.0,29.98,North,350,3.0,3.0,65,0.00,,,0.00,,2013-09-03 03:55:00,
2013-09-02 23:25:00,67.0,55.0,29.98,North,350,3.0,3.0,65,0.00,,,0.00,,2013-09-03 04:25:00,
2013-09-02 23:34:00,67.0,55.0,29.98,North,350,3.0,3.0,65,0.00,,,0.00,,2013-09-03 04:34:00,
2013-09-02 23:53:00,66.0,54.0,29.99,NNE,20,3.0,3.0,65,0.00,,,0.00,,2013-09-03 04:53:00,